Time;durP1;ratioP1;P1;durP2;ratioP2;P2;SDS_P1;SDS_P2;PMS_P1;PMS_P2;Temp;Humidity;BMP_temperature;BMP_pressure;BME280_temperature;BME280_humidity;BME280_pressure;Samples;Min_cycle;Max_cycle;Signal;HPM_P1;HPM_P2
2022/04/16 00:01:56;;;;;;;2.70;2.42;;;21.60;41.90;;;;;;5040761;28;20045;-83
2022/04/16 00:04:22;;;;;;;2.63;2.38;;;21.60;41.90;;;;;;5022704;28;20048;-82
2022/04/16 00:06:48;;;;;;;2.50;2.20;;;21.60;41.90;;;;;;5038980;28;20022;-83
2022/04/16 00:09:15;;;;;;;2.47;2.20;;;21.60;41.90;;;;;;5039270;28;20089;-83
2022/04/16 00:11:41;;;;;;;2.80;2.40;;;21.60;41.90;;;;;;5038869;28;20565;-83
2022/04/16 00:14:08;;;;;;;3.38;2.42;;;21.60;41.80;;;;;;5039593;28;20021;-82
2022/04/16 00:16:34;;;;;;;2.78;2.42;;;21.60;41.80;;;;;;5038264;28;20528;-83
2022/04/16 00:19:00;;;;;;;2.58;2.38;;;21.50;41.80;;;;;;5037571;28;20106;-82
2022/04/16 00:21:26;;;;;;;2.90;2.42;;;21.60;41.80;;;;;;5038949;28;20026;-81
2022/04/16 00:23:53;;;;;;;2.63;2.40;;;21.60;41.80;;;;;;5035175;28;20018;-80
2022/04/16 00:26:20;;;;;;;2.40;2.00;;;21.50;41.80;;;;;;5033650;28;20022;-80
2022/04/16 00:28:46;;;;;;;2.53;2.20;;;21.50;41.80;;;;;;5015745;28;20030;-80
2022/04/16 00:31:14;;;;;;;3.90;2.58;;;21.50;41.80;;;;;;5033306;28;20014;-80
2022/04/16 00:33:40;;;;;;;2.55;2.20;;;21.50;41.80;;;;;;5033622;28;20041;-80
2022/04/16 00:36:06;;;;;;;2.65;2.17;;;21.50;41.80;;;;;;5033470;28;20544;-80
2022/04/16 00:38:34;;;;;;;3.20;2.58;;;21.50;41.70;;;;;;5033980;28;20013;-81
2022/04/16 00:41:02;;;;;;;2.90;2.22;;;21.50;41.80;;;;;;5017781;28;20070;-83
2022/04/16 00:43:28;;;;;;;2.70;2.30;;;21.50;41.80;;;;;;5035722;28;20018;-83
2022/04/16 00:45:55;;;;;;;2.78;2.38;;;21.50;41.80;;;;;;5035963;28;20021;-83
2022/04/16 00:48:21;;;;;;;2.63;2.33;;;21.50;41.70;;;;;;5035206;28;20495;-83
2022/04/16 00:50:49;;;;;;;2.58;2.30;;;21.50;41.70;;;;;;5034802;28;20056;-81
2022/04/16 00:53:16;;;;;;;2.42;2.22;;;21.50;41.70;;;;;;5035951;28;20072;-82
2022/04/16 00:55:42;;;;;;;2.75;2.30;;;21.50;41.70;;;;;;5035470;28;20025;-82
2022/04/16 00:58:08;;;;;;;3.50;2.63;;;21.50;42.00;;;;;;5035088;28;20512;-82
2022/04/16 01:00:35;;;;;;;2.45;2.20;;;21.50;41.70;;;;;;5034647;28;20034;-83
2022/04/16 01:03:02;;;;;;;2.58;2.22;;;21.50;41.70;;;;;;5034127;28;20113;-83
2022/04/16 01:05:28;;;;;;;2.90;2.40;;;21.50;41.70;;;;;;5034117;28;20072;-82
2022/04/16 01:07:56;;;;;;;2.40;2.20;;;21.50;41.60;;;;;;5017590;28;20071;-81
2022/04/16 01:10:26;;;;;;;2.60;2.40;;;21.40;41.50;;;;;;5034175;28;20055;-84
2022/04/16 01:12:52;;;;;;;2.40;2.20;;;21.40;41.60;;;;;;5033958;28;20507;-81
2022/04/16 01:15:20;;;;;;;3.33;2.45;;;21.40;41.70;;;;;;5033753;28;20017;-83
2022/04/16 01:17:49;;;;;;;2.83;2.53;;;21.40;41.60;;;;;;5017363;28;20025;-81
2022/04/16 01:20:16;;;;;;;2.65;2.15;;;21.40;41.60;;;;;;5017211;28;20030;-82
2022/04/16 01:22:46;;;;;;;3.15;2.50;;;21.40;41.60;;;;;;5033004;28;20496;-81
2022/04/16 01:25:11;;;;;;;2.60;2.40;;;21.40;41.50;;;;;;5032947;28;20583;-81
2022/04/16 01:27:43;;;;;;;3.05;2.45;;;21.40;41.50;;;;;;5032782;28;20339;-82
2022/04/16 01:30:09;;;;;;;2.63;2.42;;;21.40;41.50;;;;;;5032530;28;20025;-81
2022/04/16 01:32:36;;;;;;;2.65;2.10;;;21.40;41.50;;;;;;5032259;28;20037;-81
2022/04/16 01:35:04;;;;;;;2.58;2.28;;;21.40;41.40;;;;;;5016417;28;20030;-82
2022/04/16 01:37:34;;;;;;;2.97;2.53;;;21.40;41.40;;;;;;5017019;28;20067;-82
2022/04/16 01:40:13;;;;;;;3.22;2.75;;;21.30;41.40;;;;;;5019149;28;20030;-83
2022/04/16 01:42:39;;;;;;;3.28;2.60;;;21.30;41.40;;;;;;5035259;28;20060;-82
2022/04/16 01:45:06;;;;;;;2.90;2.58;;;21.30;41.40;;;;;;5036432;28;20076;-80
2022/04/16 01:47:36;;;;;;;3.08;2.47;;;21.30;41.40;;;;;;5035012;28;20005;-81
2022/04/16 01:50:06;;;;;;;2.88;2.58;;;21.30;41.40;;;;;;5035188;28;20021;-82
2022/04/16 01:52:34;;;;;;;2.80;2.60;;;21.30;41.40;;;;;;5034681;28;20021;-81
2022/04/16 01:55:00;;;;;;;3.50;2.40;;;21.30;41.30;;;;;;5034796;28;20018;-80
2022/04/16 01:57:26;;;;;;;3.33;2.38;;;21.30;41.30;;;;;;5035283;28;20079;-81
2022/04/16 01:59:53;;;;;;;2.60;2.35;;;21.30;41.30;;;;;;5034676;28;20044;-81
2022/04/16 02:02:19;;;;;;;2.97;2.53;;;21.30;41.30;;;;;;5034551;28;20017;-80
2022/04/16 02:04:45;;;;;;;2.42;2.20;;;21.30;41.30;;;;;;5033862;28;20487;-81
2022/04/16 02:07:12;;;;;;;2.50;2.30;;;21.30;41.30;;;;;;5033711;28;20013;-81
2022/04/16 02:09:38;;;;;;;2.45;2.20;;;21.30;41.30;;;;;;5035783;28;20026;-81
2022/04/16 02:12:04;;;;;;;2.58;2.38;;;21.30;41.30;;;;;;5036203;28;20022;-81
2022/04/16 02:14:30;;;;;;;2.58;2.38;;;21.30;41.30;;;;;;5018942;28;20456;-81
2022/04/16 02:16:57;;;;;;;3.00;2.70;;;21.30;41.20;;;;;;5035072;28;20084;-81
2022/04/16 02:19:23;;;;;;;2.50;2.30;;;21.30;41.30;;;;;;5035369;28;20025;-82
2022/04/16 02:21:49;;;;;;;2.80;2.50;;;21.30;41.30;;;;;;5035771;28;20088;-83
2022/04/16 02:24:17;;;;;;;2.42;2.22;;;21.30;41.30;;;;;;5040477;28;20595;-82
2022/04/16 02:26:46;;;;;;;2.63;2.30;;;21.30;41.30;;;;;;5040987;28;20013;-81
2022/04/16 02:29:13;;;;;;;;;;;21.30;41.30;;;;;;5041066;28;20026;-81
2022/04/16 02:31:39;;;;;;;2.92;2.50;;;21.30;41.20;;;;;;5041289;28;19908;-82
2022/04/16 02:34:05;;;;;;;2.88;2.40;;;21.30;41.20;;;;;;5040811;28;20030;-82
2022/04/16 02:36:32;;;;;;;2.50;2.30;;;21.20;41.20;;;;;;5039613;28;20040;-82
2022/04/16 02:38:58;;;;;;;3.35;2.60;;;21.20;41.20;;;;;;5039029;28;20037;-83
2022/04/16 02:41:24;;;;;;;2.50;2.30;;;21.20;41.20;;;;;;5041687;28;20029;-82
2022/04/16 02:43:50;;;;;;;2.72;2.47;;;21.20;41.20;;;;;;5025888;28;20040;-81
2022/04/16 02:49:02;;;;;;;2.58;2.38;;;21.30;41.20;;;;;;5042741;28;20020;-81
2022/04/16 02:51:27;;;;;;;2.53;2.33;;;21.20;41.10;;;;;;5042800;28;20018;-82
2022/04/16 02:53:54;;;;;;;2.63;2.42;;;21.20;41.10;;;;;;5045338;28;20018;-81
2022/04/16 02:56:22;;;;;;;2.85;2.50;;;21.20;41.10;;;;;;5042162;28;20047;-82
2022/04/16 02:58:49;;;;;;;2.77;2.57;;;21.20;41.10;;;;;;5043722;28;20049;-80
2022/04/16 03:01:15;;;;;;;3.25;2.42;;;21.20;41.10;;;;;;5044268;28;20022;-81
2022/04/16 03:03:41;;;;;;;2.85;2.50;;;21.20;41.10;;;;;;5027527;28;20021;-80
2022/04/16 03:06:08;;;;;;;2.70;2.50;;;21.20;41.10;;;;;;5044469;28;20018;-81
2022/04/16 03:08:37;;;;;;;2.58;2.38;;;21.10;41.00;;;;;;5041093;28;20018;-81
2022/04/16 03:11:06;;;;;;;2.60;2.40;;;21.10;41.00;;;;;;5038682;28;20021;-81
2022/04/16 03:13:35;;;;;;;2.72;2.38;;;21.10;41.00;;;;;;5038462;28;20028;-81
2022/04/16 03:18:47;;;;;;;2.60;2.40;;;21.10;41.10;;;;;;5038527;28;20036;-80
2022/04/16 03:21:13;;;;;;;2.80;2.60;;;21.10;41.00;;;;;;5038210;28;20117;-84
2022/04/16 03:23:40;;;;;;;3.15;2.50;;;21.10;41.00;;;;;;5037895;28;20024;-83
2022/04/16 03:26:06;;;;;;;2.53;2.33;;;21.10;41.00;;;;;;5035896;28;20014;-81
2022/04/16 03:28:33;;;;;;;3.05;2.58;;;21.10;41.00;;;;;;5035771;28;20086;-82
2022/04/16 03:30:59;;;;;;;2.72;2.53;;;21.10;41.10;;;;;;5035564;28;20060;-82
2022/04/16 03:33:25;;;;;;;2.65;2.40;;;21.10;41.00;;;;;;5035678;28;20081;-82
2022/04/16 03:35:51;;;;;;;2.72;2.40;;;21.10;41.00;;;;;;5035739;28;20021;-81
2022/04/16 03:38:21;;;;;;;2.70;2.50;;;21.10;41.10;;;;;;5036007;28;20032;-82
2022/04/16 03:40:50;;;;;;;3.05;2.45;;;21.10;41.10;;;;;;5037127;28;20025;-83
2022/04/16 03:43:19;;;;;;;2.75;2.55;;;21.10;41.10;;;;;;5037135;28;20133;-81
2022/04/16 03:45:45;;;;;;;2.60;2.40;;;21.10;41.00;;;;;;5037516;28;20026;-82
2022/04/16 03:48:11;;;;;;;2.60;2.38;;;21.10;41.00;;;;;;5037071;28;20040;-81
2022/04/16 03:50:37;;;;;;;2.40;2.20;;;21.10;41.00;;;;;;5037063;28;20108;-83
2022/04/16 03:53:03;;;;;;;2.75;2.47;;;21.10;41.00;;;;;;5036290;28;20018;-80
2022/04/16 04:01:00;;;;;;;2.50;2.28;;;21.10;41.00;;;;;;5034486;28;20507;-80
2022/04/16 04:03:26;;;;;;;2.53;2.33;;;21.00;40.90;;;;;;5017212;28;20022;-80
2022/04/16 04:05:56;;;;;;;2.55;2.33;;;21.10;41.00;;;;;;5034598;28;20013;-81
2022/04/16 04:08:22;;;;;;;2.70;2.40;;;21.10;40.90;;;;;;5034774;28;20026;-80
2022/04/16 04:10:48;;;;;;;2.67;2.40;;;21.10;41.00;;;;;;5034927;28;20017;-80
2022/04/16 04:13:14;;;;;;;4.40;3.00;;;21.00;40.90;;;;;;5017955;28;20024;-80
2022/04/16 04:15:40;;;;;;;2.70;2.50;;;21.00;40.90;;;;;;5033937;28;20045;-82
2022/04/16 04:18:07;;;;;;;2.78;2.58;;;21.00;40.90;;;;;;5033793;28;20540;-80
2022/04/16 04:20:35;;;;;;;3.33;2.50;;;21.00;40.90;;;;;;5033592;28;20486;-80
2022/04/16 04:23:02;;;;;;;2.50;2.30;;;21.00;40.90;;;;;;5033940;28;20012;-79
2022/04/16 04:25:28;;;;;;;2.50;2.28;;;21.00;40.90;;;;;;5034213;28;20495;-80
2022/04/16 04:27:54;;;;;;;2.53;2.33;;;21.00;40.90;;;;;;5033792;28;20491;-80
2022/04/16 04:30:21;;;;;;;2.85;2.53;;;21.00;40.90;;;;;;5033959;28;20476;-80
2022/04/16 04:32:47;;;;;;;2.88;2.58;;;21.00;40.90;;;;;;5033750;28;20101;-80
2022/04/16 04:35:14;;;;;;;2.78;2.53;;;21.00;40.90;;;;;;5033949;28;20017;-80
2022/04/16 04:37:40;;;;;;;2.90;2.30;;;21.00;40.90;;;;;;5033853;28;20013;-80
2022/04/16 04:40:06;;;;;;;2.78;2.47;;;21.00;40.90;;;;;;5033555;28;20100;-80
2022/04/16 04:42:33;;;;;;;2.58;2.35;;;21.00;40.90;;;;;;5033821;28;20105;-80
2022/04/16 04:45:05;;;;;;;2.75;2.45;;;21.00;40.50;;;;;;5033823;28;20500;-80
2022/04/16 04:47:31;;;;;;;2.58;2.38;;;21.00;40.90;;;;;;5017598;28;20071;-80
2022/04/16 04:49:57;;;;;;;2.90;2.60;;;21.00;41.00;;;;;;5017661;28;20030;-80
2022/04/16 04:52:26;;;;;;;2.95;2.30;;;21.00;41.00;;;;;;5035152;28;20040;-79
2022/04/16 04:55:01;;;;;;;2.47;2.28;;;20.90;40.90;;;;;;5034648;28;20112;-80
2022/04/16 04:57:27;;;;;;;3.38;2.85;;;21.00;41.00;;;;;;5033778;28;20108;-80
2022/04/16 04:59:53;;;;;;;3.10;2.50;;;20.90;40.90;;;;;;5017241;28;20116;-79
2022/04/16 05:02:19;;;;;;;2.60;2.40;;;21.00;41.00;;;;;;5035255;28;20018;-81
2022/04/16 05:04:45;;;;;;;2.80;2.50;;;21.00;41.00;;;;;;5034284;28;20017;-81
2022/04/16 05:07:12;;;;;;;3.10;2.38;;;21.00;40.90;;;;;;5035445;28;20187;-79
2022/04/16 05:09:38;;;;;;;2.63;2.42;;;21.00;40.90;;;;;;5037966;28;20018;-81
2022/04/16 05:12:04;;;;;;;2.60;2.40;;;21.00;40.90;;;;;;5022775;28;20029;-80
2022/04/16 05:14:30;;;;;;;2.95;2.67;;;21.00;40.90;;;;;;5038222;28;20108;-81
2022/04/16 05:16:57;;;;;;;2.88;2.40;;;21.00;40.80;;;;;;5040129;28;20041;-79
2022/04/16 05:19:23;;;;;;;2.72;2.53;;;21.00;40.80;;;;;;5040487;28;20030;-79
2022/04/16 05:21:51;;;;;;;2.78;2.47;;;21.00;40.70;;;;;;5039775;28;20093;-79
2022/04/16 05:24:18;;;;;;;2.53;2.33;;;21.00;40.70;;;;;;5051254;28;20486;-79
2022/04/16 05:26:45;;;;;;;2.70;2.33;;;21.00;40.70;;;;;;5033917;28;20045;-79
2022/04/16 05:29:11;;;;;;;4.15;2.45;;;21.10;40.60;;;;;;5017652;28;20025;-79
2022/04/16 05:31:37;;;;;;;2.60;2.40;;;21.10;40.60;;;;;;5035055;28;20070;-78
2022/04/16 05:34:18;;;;;;;2.60;2.33;;;21.10;40.50;;;;;;5034336;28;20465;-79
2022/04/16 05:36:49;;;;;;;2.67;2.47;;;21.10;40.40;;;;;;5034354;28;20044;-79
2022/04/16 05:39:15;;;;;;;2.80;2.55;;;21.30;40.40;;;;;;5037220;28;20037;-80
2022/04/16 05:41:42;;;;;;;2.40;2.17;;;21.30;40.40;;;;;;5039539;28;20021;-79
2022/04/16 05:44:09;;;;;;;2.67;2.47;;;21.30;40.10;;;;;;5040330;28;20037;-80
2022/04/16 05:46:35;;;;;;;2.30;2.10;;;21.40;40.20;;;;;;5039205;28;20013;-80
2022/04/16 05:49:02;;;;;;;2.40;2.20;;;21.50;40.20;;;;;;5040478;28;20473;-80
2022/04/16 05:51:28;;;;;;;2.38;2.15;;;21.60;40.10;;;;;;5040704;28;20019;-80
2022/04/16 05:53:54;;;;;;;3.00;2.53;;;21.60;39.80;;;;;;5039365;28;20075;-79
2022/04/16 05:56:20;;;;;;;3.33;2.10;;;21.80;39.60;;;;;;5039528;28;20013;-80
2022/04/16 05:58:47;;;;;;;2.70;2.20;;;21.90;39.40;;;;;;5038998;28;20014;-79
2022/04/16 06:01:12;;;;;;;2.50;2.30;;;22.00;39.10;;;;;;5038883;28;20041;-80
2022/04/16 06:03:41;;;;;;;2.38;2.17;;;22.20;38.90;;;;;;5038884;28;20053;-81
2022/04/16 06:06:08;;;;;;;2.67;2.17;;;22.30;38.60;;;;;;5038331;28;20034;-79
2022/04/16 06:08:35;;;;;;;2.20;2.00;;;22.40;38.30;;;;;;5037381;28;20261;-79
2022/04/16 06:11:01;;;;;;;2.50;2.30;;;22.60;38.10;;;;;;5020663;28;20042;-80
2022/04/16 06:13:31;;;;;;;2.20;2.00;;;22.70;37.90;;;;;;5037204;28;20072;-80
2022/04/16 06:15:58;;;;;;;2.45;2.13;;;22.70;37.60;;;;;;5037752;28;20127;-79
2022/04/16 06:18:24;;;;;;;2.47;2.28;;;22.90;37.40;;;;;;5020549;28;20148;-79
2022/04/16 06:20:50;;;;;;;2.33;2.13;;;23.00;37.10;;;;;;5036670;28;20026;-79
2022/04/16 06:23:18;;;;;;;2.15;1.95;;;23.20;36.90;;;;;;5037953;28;20021;-80
2022/04/16 06:25:44;;;;;;;2.47;2.28;;;23.30;37.30;;;;;;5036899;28;20113;-79
2022/04/16 06:28:10;;;;;;;2.15;1.90;;;23.30;36.40;;;;;;5041593;28;20106;-79
2022/04/16 06:30:37;;;;;;;2.20;2.00;;;23.50;36.20;;;;;;5039527;28;20032;-78
2022/04/16 06:33:03;;;;;;;2.10;1.90;;;23.60;36.10;;;;;;5023174;28;20022;-79
2022/04/16 06:35:30;;;;;;;2.33;2.00;;;23.70;35.80;;;;;;5040693;28;20021;-78
2022/04/16 06:37:55;;;;;;;2.28;1.90;;;23.80;35.60;;;;;;5041470;28;20025;-79
2022/04/16 06:40:22;;;;;;;2.30;2.10;;;23.90;35.40;;;;;;5048715;28;20025;-79
2022/04/16 06:42:48;;;;;;;2.08;1.92;;;24.00;35.10;;;;;;5047690;28;20018;-78
2022/04/16 06:45:14;;;;;;;3.30;2.13;;;24.10;34.90;;;;;;5046584;28;20018;-78
2022/04/16 06:47:40;;;;;;;1.92;1.73;;;24.20;34.80;;;;;;5045859;28;20014;-80
2022/04/16 06:50:07;;;;;;;2.35;2.15;;;24.30;34.60;;;;;;5045403;28;20108;-79
2022/04/16 06:52:33;;;;;;;2.35;2.10;;;24.40;34.40;;;;;;5045294;28;20021;-78
2022/04/16 06:55:00;;;;;;;2.10;1.90;;;24.60;34.30;;;;;;5038554;28;20025;-78
2022/04/16 06:57:26;;;;;;;2.50;2.30;;;24.60;34.10;;;;;;5038127;28;20386;-78
2022/04/16 06:59:52;;;;;;;2.17;1.98;;;24.70;33.90;;;;;;5037256;28;20029;-79
2022/04/16 07:02:18;;;;;;;2.08;1.80;;;24.80;33.80;;;;;;5037852;28;20392;-78
2022/04/16 07:04:43;;;;;;;2.20;1.92;;;24.90;33.70;;;;;;5038031;28;20014;-79
2022/04/16 07:07:09;;;;;;;1.70;1.60;;;25.00;33.60;;;;;;5037889;28;20022;-79
2022/04/16 07:09:38;;;;;;;2.22;1.83;;;25.00;33.40;;;;;;5020718;28;20146;-78
2022/04/16 07:12:10;;;;;;;2.20;2.00;;;25.10;33.20;;;;;;5037863;28;20025;-79
2022/04/16 07:14:40;;;;;;;2.08;1.88;;;25.20;33.10;;;;;;5038953;28;20524;-78
2022/04/16 07:17:06;;;;;;;2.67;1.70;;;25.30;33.00;;;;;;5037850;28;20049;-80
2022/04/16 07:19:33;;;;;;;1.88;1.77;;;25.40;32.80;;;;;;5037728;28;20037;-79
2022/04/16 07:21:59;;;;;;;2.20;2.00;;;25.50;32.70;;;;;;5037652;28;20025;-78
2022/04/16 07:24:25;;;;;;;1.85;1.60;;;25.60;32.60;;;;;;5042905;28;20024;-80
2022/04/16 07:26:53;;;;;;;2.10;1.90;;;25.70;33.00;;;;;;5044085;28;20080;-79
2022/04/16 07:29:20;;;;;;;2.10;1.90;;;25.70;32.30;;;;;;5028115;28;20017;-80
2022/04/16 07:31:47;;;;;;;2.10;1.90;;;25.80;32.30;;;;;;5043552;28;20017;-79
2022/04/16 07:34:13;;;;;;;2.10;1.80;;;25.90;32.10;;;;;;5043744;28;20024;-80
2022/04/16 07:36:39;;;;;;;2.17;1.88;;;25.90;32.00;;;;;;5043475;28;20477;-80
2022/04/16 07:39:05;;;;;;;2.00;1.80;;;26.00;31.90;;;;;;5039505;28;20030;-79
2022/04/16 07:41:31;;;;;;;2.10;1.90;;;26.10;31.80;;;;;;5021318;28;20093;-79
2022/04/16 07:44:03;;;;;;;3.42;2.10;;;26.10;31.70;;;;;;5036847;28;20014;-79
2022/04/16 07:46:32;;;;;;;2.05;1.85;;;26.20;31.60;;;;;;5038186;28;20362;-80
2022/04/16 07:48:58;;;;;;;1.92;1.77;;;26.20;31.50;;;;;;5037681;28;20029;-79
2022/04/16 07:51:25;;;;;;;1.98;1.70;;;26.30;31.50;;;;;;5036683;28;20044;-78
2022/04/16 07:53:52;;;;;;;2.10;1.90;;;26.30;31.30;;;;;;5036507;28;20062;-79
2022/04/16 07:56:18;;;;;;;3.67;1.95;;;26.40;31.30;;;;;;5037426;28;20047;-78
2022/04/16 07:58:44;;;;;;;2.33;1.80;;;26.50;31.20;;;;;;5037284;28;20505;-78
2022/04/16 08:01:10;;;;;;;1.95;1.75;;;26.50;31.20;;;;;;5036814;28;20025;-78
2022/04/16 08:03:37;;;;;;;2.10;1.90;;;26.60;31.10;;;;;;5037374;28;20036;-78
2022/04/16 08:06:03;;;;;;;1.77;1.60;;;26.70;31.00;;;;;;5037937;28;20018;-78
2022/04/16 08:08:28;;;;;;;2.58;1.77;;;26.70;30.90;;;;;;5036871;28;20075;-78
2022/04/16 08:10:55;;;;;;;2.08;1.88;;;26.80;30.90;;;;;;5035035;28;20022;-79
2022/04/16 08:13:23;;;;;;;1.90;1.80;;;26.80;30.80;;;;;;5034983;28;20036;-78
2022/04/16 08:15:49;;;;;;;2.60;1.67;;;26.90;30.80;;;;;;5034108;28;20072;-78
2022/04/16 08:18:17;;;;;;;2.10;1.90;;;26.90;30.70;;;;;;5034909;28;20515;-79
2022/04/16 08:20:43;;;;;;;2.60;2.13;;;26.90;30.60;;;;;;5035140;28;20506;-78
2022/04/16 08:23:09;;;;;;;2.38;1.73;;;26.90;30.60;;;;;;5017624;28;20104;-79
2022/04/16 08:28:02;;;;;;;2.33;1.80;;;27.00;30.60;;;;;;5034555;28;20026;-79
2022/04/16 08:30:27;;;;;;;2.00;1.80;;;27.00;30.60;;;;;;5033392;28;20062;-80
2022/04/16 08:32:54;;;;;;;2.17;1.85;;;27.10;30.40;;;;;;5034299;28;20029;-79
2022/04/16 08:35:20;;;;;;;2.00;1.80;;;27.00;30.40;;;;;;5033475;28;20387;-79
2022/04/16 08:37:47;;;;;;;2.25;1.80;;;27.10;30.40;;;;;;5034661;28;20029;-79
2022/04/16 08:40:16;;;;;;;2.45;2.10;;;27.10;30.40;;;;;;5037266;28;20025;-79
2022/04/16 08:42:43;;;;;;;1.70;1.60;;;27.20;30.40;;;;;;5036822;28;20018;-79
2022/04/16 08:45:10;;;;;;;2.00;1.77;;;27.20;30.30;;;;;;5039142;28;20020;-80
2022/04/16 08:47:38;;;;;;;2.28;1.77;;;27.20;30.20;;;;;;5038632;28;20045;-79
2022/04/16 08:50:05;;;;;;;2.00;1.80;;;27.20;30.30;;;;;;5036537;28;20009;-80
2022/04/16 08:52:33;;;;;;;2.35;1.85;;;27.20;30.20;;;;;;5037619;28;20017;-80
2022/04/16 08:54:59;;;;;;;3.15;1.88;;;27.20;30.20;;;;;;5036568;28;20010;-79
2022/04/16 08:57:26;;;;;;;1.80;1.70;;;27.30;30.20;;;;;;5036801;28;20037;-79
2022/04/16 08:59:52;;;;;;;2.30;1.95;;;27.30;30.10;;;;;;5037959;28;20128;-79
2022/04/16 09:02:22;;;;;;;2.20;1.88;;;27.30;30.10;;;;;;5037219;28;20068;-79
2022/04/16 09:04:50;;;;;;;2.10;1.70;;;27.30;30.30;;;;;;5038399;28;20080;-79
2022/04/16 09:07:20;;;;;;;1.90;1.60;;;27.20;30.20;;;;;;5021737;28;20021;-80
2022/04/16 09:09:47;;;;;;;2.45;1.75;;;27.30;30.30;;;;;;5040945;28;20033;-80
2022/04/16 09:12:17;;;;;;;3.05;1.77;;;27.30;30.30;;;;;;5041245;28;20481;-81
2022/04/16 09:14:45;;;;;;;2.03;1.77;;;27.30;30.20;;;;;;5041995;28;20021;-79
2022/04/16 09:17:19;;;;;;;1.80;1.70;;;27.30;30.30;;;;;;5041915;28;20119;-80
2022/04/16 09:19:55;;;;;;;2.10;1.80;;;27.30;30.30;;;;;;5025503;28;20025;-79
2022/04/16 09:22:35;;;;;;;2.47;2.00;;;27.30;30.30;;;;;;5043429;28;20024;-79
2022/04/16 09:25:02;;;;;;;1.60;1.50;;;27.20;30.20;;;;;;5040964;28;20094;-81
2022/04/16 09:27:38;;;;;;;2.90;1.80;;;27.20;30.40;;;;;;5040243;28;20032;-82
2022/04/16 09:30:07;;;;;;;1.80;1.70;;;27.20;30.30;;;;;;5041373;28;20025;-78
2022/04/16 09:32:44;;;;;;;1.92;1.73;;;27.20;30.30;;;;;;5040823;28;20022;-80
2022/04/16 09:35:28;;;;;;;1.70;1.60;;;27.20;30.40;;;;;;5040512;28;20041;-79
2022/04/16 09:37:58;;;;;;;1.92;1.70;;;27.20;30.40;;;;;;5040282;28;20025;-79
2022/04/16 09:40:28;;;;;;;2.60;1.80;;;27.20;30.40;;;;;;5039698;28;20030;-78
2022/04/16 09:42:55;;;;;;;1.95;1.75;;;27.20;30.40;;;;;;5041133;28;20021;-79
2022/04/16 09:45:20;;;;;;;1.73;1.63;;;27.20;30.40;;;;;;5023004;28;20009;-78
2022/04/16 09:47:50;;;;;;;2.60;1.77;;;27.20;30.50;;;;;;5051311;28;20032;-80
2022/04/16 09:50:21;;;;;;;2.28;1.80;;;27.10;30.60;;;;;;5054613;28;20029;-80
2022/04/16 09:52:53;;;;;;;2.25;1.95;;;27.10;30.70;;;;;;5052692;28;20010;-79
2022/04/16 09:55:22;;;;;;;1.95;1.70;;;27.00;30.60;;;;;;5045728;28;20014;-80
2022/04/16 09:57:50;;;;;;;2.42;1.75;;;27.00;30.60;;;;;;5044751;28;20014;-79
2022/04/16 10:00:17;;;;;;;2.08;1.70;;;27.10;30.80;;;;;;5048242;28;20039;-80
2022/04/16 10:02:43;;;;;;;1.85;1.60;;;27.10;30.70;;;;;;5040522;28;20033;-78
2022/04/16 10:05:09;;;;;;;2.05;1.67;;;27.00;30.60;;;;;;5056564;28;20022;-79
2022/04/16 10:07:35;;;;;;;1.83;1.73;;;27.00;30.70;;;;;;5055951;28;20360;-77
2022/04/16 10:10:03;;;;;;;2.03;1.80;;;27.00;30.80;;;;;;5055675;28;20025;-77
2022/04/16 10:15:17;;;;;;;1.90;1.60;;;27.00;30.80;;;;;;5055706;28;20037;-77
2022/04/16 10:17:52;;;;;;;2.70;1.85;;;26.90;30.80;;;;;;5055959;28;20022;-78
2022/04/16 10:20:20;;;;;;;2.05;1.90;;;26.90;30.90;;;;;;5055670;28;20041;-79
2022/04/16 10:23:03;;;;;;;2.17;1.80;;;26.80;30.90;;;;;;5039586;28;20021;-80
2022/04/16 10:25:41;;;;;;;2.08;1.88;;;26.80;31.00;;;;;;5037563;28;20017;-79
2022/04/16 10:28:08;;;;;;;2.75;1.70;;;26.80;31.10;;;;;;5052780;28;20006;-78
2022/04/16 10:30:55;;;;;;;1.92;1.67;;;26.70;31.10;;;;;;5057485;28;20005;-79
2022/04/16 10:33:22;;;;;;;1.90;1.73;;;26.70;31.20;;;;;;5057371;28;20033;-78
2022/04/16 10:35:56;;;;;;;2.15;1.92;;;26.60;31.10;;;;;;5057245;28;20021;-78
2022/04/16 10:38:34;;;;;;;3.08;1.85;;;26.60;31.20;;;;;;5057143;28;20025;-79
2022/04/16 10:41:11;;;;;;;1.70;1.60;;;26.60;31.30;;;;;;5057213;28;20044;-80
2022/04/16 10:43:37;;;;;;;2.15;1.70;;;26.50;31.30;;;;;;5056420;28;20014;-78
2022/04/16 10:46:03;;;;;;;1.92;1.70;;;26.40;31.40;;;;;;5055566;28;20005;-79
2022/04/16 10:48:33;;;;;;;1.70;1.60;;;26.40;31.50;;;;;;5055471;28;20048;-79
2022/04/16 10:51:00;;;;;;;2.40;1.83;;;26.30;31.60;;;;;;5056239;28;20021;-78
2022/04/16 10:53:33;;;;;;;1.92;1.73;;;26.20;31.50;;;;;;5054941;28;20048;-80
2022/04/16 10:56:18;;;;;;;1.80;1.67;;;26.20;31.70;;;;;;5053418;28;20025;-78
2022/04/16 10:58:45;;;;;;;2.33;1.70;;;26.20;31.70;;;;;;5052129;28;20014;-77
2022/04/16 11:01:12;;;;;;;1.70;1.60;;;26.10;31.80;;;;;;5020698;28;20072;-77
2022/04/16 11:03:48;;;;;;;2.00;1.80;;;26.00;31.80;;;;;;5036733;28;20013;-77
2022/04/16 11:06:17;;;;;;;2.80;1.65;;;26.00;32.00;;;;;;5035308;28;20030;-78
2022/04/16 11:08:45;;;;;;;2.35;1.80;;;25.90;32.00;;;;;;5034626;28;20012;-77
2022/04/16 11:11:12;;;;;;;2.05;1.85;;;25.90;32.10;;;;;;5034088;28;20020;-78
2022/04/16 11:13:38;;;;;;;1.75;1.65;;;25.80;32.20;;;;;;5036690;28;20071;-78
2022/04/16 11:16:05;;;;;;;2.25;1.75;;;25.80;32.30;;;;;;5037370;28;20087;-77
2022/04/16 11:18:57;;;;;;;2.38;1.77;;;25.70;32.30;;;;;;5037211;28;20016;-79
2022/04/16 11:21:29;;;;;;;1.80;1.70;;;25.70;32.40;;;;;;5036647;28;20045;-77
2022/04/16 11:23:54;;;;;;;2.20;1.90;;;25.60;32.50;;;;;;5037616;28;20013;-79
2022/04/16 11:34:52;;;;;;;2.40;1.90;;;25.30;32.80;;;;;;5039363;28;20060;-78
2022/04/16 11:37:18;;;;;;;;;;;25.20;32.80;;;;;;5039221;28;20101;-77
2022/04/16 11:39:46;;;;;;;2.65;1.88;;;25.20;32.90;;;;;;5023924;28;19909;-79
2022/04/16 11:42:11;;;;;;;2.83;1.90;;;25.20;33.10;;;;;;5042137;28;20048;-78
2022/04/16 11:44:42;;;;;;;1.70;1.60;;;25.10;33.20;;;;;;5041259;28;20014;-80
2022/04/16 11:47:08;;;;;;;2.20;2.00;;;25.00;33.30;;;;;;5041896;28;20037;-78
2022/04/16 11:49:39;;;;;;;2.17;1.83;;;24.90;33.40;;;;;;5041653;28;20032;-78
2022/04/16 11:52:06;;;;;;;2.10;1.90;;;24.90;33.50;;;;;;5041040;28;20026;-77
2022/04/16 11:54:31;;;;;;;2.00;1.80;;;24.80;33.60;;;;;;5018424;28;20475;-78
2022/04/16 11:56:58;;;;;;;2.20;2.00;;;24.80;33.70;;;;;;5035060;28;20018;-77
2022/04/16 11:59:24;;;;;;;1.95;1.80;;;24.80;33.80;;;;;;5034443;28;20159;-76
2022/04/16 12:02:05;;;;;;;1.90;1.77;;;24.70;33.80;;;;;;5034587;28;20100;-81
2022/04/16 12:04:37;;;;;;;2.65;1.80;;;24.70;33.90;;;;;;5019351;28;20464;-81
2022/04/16 12:07:16;;;;;;;2.35;2.15;;;24.60;33.90;;;;;;5034847;28;20529;-79
2022/04/16 12:09:47;;;;;;;2.25;1.77;;;24.60;34.00;;;;;;5043513;28;20036;-79
2022/04/16 12:12:16;;;;;;;;;;;24.50;34.00;;;;;;5045363;28;20021;-80
2022/04/16 12:14:51;;;;;;;1.90;1.80;;;24.50;34.10;;;;;;5044231;28;19972;-80
2022/04/16 12:17:31;;;;;;;2.05;1.80;;;24.40;34.20;;;;;;5046301;28;20117;-82
2022/04/16 12:20:15;;;;;;;1.92;1.70;;;24.40;34.30;;;;;;5044247;28;20033;-82
2022/04/16 12:22:49;;;;;;;1.90;1.80;;;24.30;34.40;;;;;;5044811;28;20089;-80
2022/04/16 12:25:26;;;;;;;1.83;1.73;;;24.30;34.50;;;;;;5042899;28;20022;-80
2022/04/16 12:27:57;;;;;;;1.90;1.70;;;24.20;34.50;;;;;;5043059;28;20018;-80
2022/04/16 12:30:31;;;;;;;2.08;1.80;;;24.20;34.60;;;;;;5043023;28;20039;-79
2022/04/16 12:33:02;;;;;;;2.05;1.85;;;24.20;34.70;;;;;;5043131;28;20019;-79
2022/04/16 12:35:32;;;;;;;2.03;1.80;;;24.20;34.80;;;;;;5041872;28;20017;-80
2022/04/16 12:37:58;;;;;;;;;;;24.10;34.80;;;;;;5041236;28;20020;-80
2022/04/16 12:40:25;;;;;;;2.10;1.90;;;24.10;34.80;;;;;;5038240;28;19915;-80
2022/04/16 12:42:52;;;;;;;2.10;1.90;;;24.10;34.80;;;;;;5039111;28;20036;-79
2022/04/16 12:45:18;;;;;;;2.10;1.80;;;24.00;35.00;;;;;;5022441;28;20021;-79
2022/04/16 12:47:44;;;;;;;2.28;1.80;;;24.00;34.90;;;;;;5038768;28;20017;-80
2022/04/16 12:50:10;;;;;;;2.00;1.70;;;24.00;35.00;;;;;;5038950;28;20014;-81
2022/04/16 12:52:36;;;;;;;2.17;1.98;;;23.90;35.00;;;;;;5038267;28;20029;-79
2022/04/16 12:55:10;;;;;;;1.73;1.63;;;23.90;35.00;;;;;;5038009;28;20557;-80
2022/04/16 12:57:36;;;;;;;2.00;1.80;;;23.90;35.10;;;;;;5020849;28;20052;-80
2022/04/16 13:00:08;;;;;;;2.00;1.70;;;23.90;35.10;;;;;;5037491;28;20484;-80
2022/04/16 13:02:35;;;;;;;2.15;1.80;;;23.90;35.10;;;;;;5038515;28;20492;-80
2022/04/16 13:05:01;;;;;;;2.15;1.95;;;23.80;35.10;;;;;;5021415;28;20021;-79
2022/04/16 13:07:27;;;;;;;2.13;1.92;;;23.80;35.10;;;;;;5020977;28;20014;-79
2022/04/16 13:09:53;;;;;;;2.13;1.70;;;23.80;35.20;;;;;;5035998;28;20026;-80
2022/04/16 13:12:19;;;;;;;1.70;1.60;;;23.80;35.20;;;;;;5036897;28;20530;-78
2022/04/16 13:14:46;;;;;;;2.10;1.90;;;23.80;35.20;;;;;;5036183;28;20017;-80
2022/04/16 13:17:12;;;;;;;1.92;1.83;;;23.80;35.30;;;;;;5034894;28;20420;-79